createdAt,value
2018-09-27T00:00:41.893Z,31.83
2018-09-27T00:03:14.080Z,28.60
2018-09-27T00:05:45.712Z,34.10
2018-09-27T00:08:17.282Z,25.80
2018-09-27T00:10:48.677Z,30.97
2018-09-27T00:13:21.225Z,27.80
2018-09-27T00:15:52.744Z,27.07
2018-09-27T00:18:24.041Z,30.87
2018-09-27T00:20:55.557Z,28.70
2018-09-27T00:23:27.172Z,31.80
2018-09-27T00:25:58.480Z,31.17
2018-09-27T00:28:30.073Z,33.07
2018-09-27T00:31:01.618Z,27.60
2018-09-27T00:33:33.332Z,28.93
2018-09-27T00:36:05.101Z,32.13
2018-09-27T00:38:37.170Z,39.70
2018-09-27T00:41:08.414Z,32.93
2018-09-27T00:43:39.828Z,44.47
2018-09-27T00:46:11.441Z,30.80
2018-09-27T00:48:43.247Z,34.87
2018-09-27T00:51:14.437Z,32.10
2018-09-27T00:53:47.453Z,37.23
2018-09-27T00:56:18.733Z,34.10
2018-09-27T00:58:50.738Z,32.57
2018-09-27T01:01:22.261Z,27.27
2018-09-27T01:03:53.968Z,29.70
2018-09-27T01:06:25.525Z,26.97
2018-09-27T01:08:57.340Z,29.60
2018-09-27T01:11:28.510Z,34.47
2018-09-27T01:14:00.284Z,33.80
2018-09-27T01:16:31.265Z,33.07
2018-09-27T01:19:02.768Z,27.27
2018-09-27T01:21:34.165Z,34.90
2018-09-27T01:24:05.971Z,33.93
2018-09-27T01:26:37.298Z,25.27
2018-09-27T01:29:09.017Z,26.37
2018-09-27T01:31:40.285Z,27.07
2018-09-27T01:34:11.785Z,32.47
2018-09-27T01:36:42.925Z,27.33
2018-09-27T01:39:14.833Z,27.83
2018-09-27T01:41:46.405Z,26.80
2018-09-27T01:44:18.341Z,42.27
2018-09-27T01:46:49.608Z,28.90
2018-09-27T01:49:21.148Z,28.20
2018-09-27T01:51:52.693Z,29.70
2018-09-27T01:54:26.122Z,25.30
2018-09-27T01:56:57.322Z,25.83
2018-09-27T01:59:29.638Z,29.40
2018-09-27T02:02:01.165Z,30.47
2018-09-27T02:04:32.680Z,27.27
2018-09-27T02:07:04.042Z,32.33
2018-09-27T02:09:35.605Z,28.40
2018-09-27T02:12:07.009Z,30.47
2018-09-27T02:14:38.821Z,26.13
2018-09-27T02:17:10.252Z,29.67
2018-09-27T02:19:41.807Z,41.03
2018-09-27T02:22:13.250Z,32.83
2018-09-27T02:24:44.638Z,31.80
2018-09-27T02:27:16.534Z,31.80
2018-09-27T02:29:48.018Z,30.33
2018-09-27T02:32:19.106Z,31.40
2018-09-27T02:34:50.707Z,28.17
2018-09-27T02:37:21.806Z,27.93
2018-09-27T02:39:53.175Z,38.17
2018-09-27T02:42:24.553Z,33.77
2018-09-27T02:44:55.906Z,35.27
2018-09-27T02:47:27.146Z,39.10
2018-09-27T02:49:59.442Z,30.03
2018-09-27T02:52:33.378Z,34.00
2018-09-27T02:55:05.539Z,30.77
2018-09-27T02:57:39.375Z,41.03
2018-09-27T03:00:12.541Z,27.63
2018-09-27T03:02:44.059Z,27.73
2018-09-27T03:05:15.582Z,32.17
2018-09-27T03:07:47.235Z,36.37
2018-09-27T03:10:18.761Z,34.80
2018-09-27T03:12:50.045Z,36.10
2018-09-27T03:15:21.808Z,39.50
2018-09-27T03:17:53.009Z,31.80
2018-09-27T03:20:24.602Z,34.30
2018-09-27T03:22:56.058Z,36.53
2018-09-27T03:25:27.514Z,35.57
2018-09-27T03:27:58.884Z,30.60
2018-09-27T03:30:30.158Z,28.03
2018-09-27T03:33:02.397Z,28.80
2018-09-27T03:35:33.938Z,40.23
2018-09-27T03:38:05.530Z,29.00
2018-09-27T03:40:36.971Z,36.13
2018-09-27T03:43:08.455Z,46.93
2018-09-27T03:45:40.058Z,34.20
2018-09-27T03:48:11.297Z,41.50
2018-09-27T03:50:42.534Z,33.70
2018-09-27T03:53:13.693Z,34.10
2018-09-27T03:55:47.779Z,41.20
2018-09-27T03:58:19.158Z,43.97
2018-09-27T04:00:50.677Z,34.30
2018-09-27T04:03:22.079Z,35.57
2018-09-27T04:05:53.607Z,42.60
2018-09-27T04:08:24.922Z,32.53
2018-09-27T04:10:56.338Z,47.67
2018-09-27T04:13:27.623Z,48.37
2018-09-27T04:15:59.137Z,45.53
2018-09-27T04:18:30.346Z,49.40
2018-09-27T04:21:02.626Z,45.47
2018-09-27T04:23:33.658Z,40.57
2018-09-27T04:26:06.003Z,47.43
2018-09-27T04:28:37.366Z,57.13
2018-09-27T04:31:08.917Z,39.70
2018-09-27T04:33:40.243Z,63.83
2018-09-27T04:36:11.609Z,41.27
2018-09-27T04:38:43.086Z,50.77
2018-09-27T04:41:14.987Z,55.57
2018-09-27T04:43:46.307Z,38.20
2018-09-27T04:46:17.995Z,46.33
2018-09-27T04:48:49.446Z,54.33
2018-09-27T04:51:21.059Z,59.50
2018-09-27T04:53:52.423Z,50.63
2018-09-27T04:56:24.518Z,56.73
2018-09-27T04:58:55.685Z,63.00
2018-09-27T05:01:27.243Z,44.27
2018-09-27T05:03:58.536Z,37.73
2018-09-27T05:06:30.023Z,50.70
2018-09-27T05:09:01.173Z,52.57
2018-09-27T05:11:32.894Z,50.63
2018-09-27T05:14:04.137Z,44.13
2018-09-27T05:16:35.922Z,49.65
2018-09-27T05:19:07.437Z,35.52
2018-09-27T05:21:38.997Z,43.50
2018-09-27T05:24:10.399Z,47.33
2018-09-27T05:26:41.662Z,37.45
2018-09-27T05:29:12.903Z,36.03
2018-09-27T05:31:46.162Z,53.57
2018-09-27T05:34:17.346Z,41.37
2018-09-27T05:36:48.637Z,50.23
2018-09-27T05:39:20.039Z,55.40
2018-09-27T05:41:52.030Z,41.00
2018-09-27T05:44:23.261Z,36.63
2018-09-27T05:46:55.075Z,47.47
2018-09-27T05:49:26.410Z,46.87
2018-09-27T05:51:57.963Z,51.87
2018-09-27T05:54:29.051Z,40.80
2018-09-27T05:57:00.478Z,41.95
2018-09-27T05:59:31.341Z,37.60
2018-09-27T06:02:02.595Z,52.48
2018-09-27T06:04:33.548Z,46.23
2018-09-27T06:07:05.310Z,56.60
2018-09-27T06:09:36.228Z,41.85
2018-09-27T06:12:07.169Z,36.35
2018-09-27T06:14:38.331Z,47.90
2018-09-27T06:17:09.938Z,48.08
2018-09-27T06:19:41.267Z,41.25
2018-09-27T06:22:13.158Z,46.05
2018-09-27T06:24:44.367Z,49.67
2018-09-27T06:27:15.923Z,51.07
2018-09-27T06:29:47.401Z,54.97
2018-09-27T06:32:20.882Z,44.83
2018-09-27T06:34:52.847Z,70.40
2018-09-27T06:37:24.742Z,48.13
2018-09-27T06:39:56.077Z,47.40
2018-09-27T06:42:27.493Z,46.00
2018-09-27T06:44:58.867Z,63.97
2018-09-27T06:47:30.377Z,58.07
2018-09-27T06:50:02.286Z,52.27
2018-09-27T06:52:33.790Z,62.03
2018-09-27T06:55:05.361Z,44.03
2018-09-27T06:57:36.737Z,53.00
2018-09-27T07:00:08.777Z,43.17
2018-09-27T07:02:40.499Z,40.27
2018-09-27T07:05:13.485Z,58.43
2018-09-27T07:07:44.994Z,47.20
2018-09-27T07:10:16.362Z,39.67
2018-09-27T07:12:47.986Z,47.07
2018-09-27T07:15:19.257Z,51.33
2018-09-27T07:17:50.784Z,42.37
2018-09-27T07:20:22.153Z,48.03
2018-09-27T07:22:54.998Z,57.60
2018-09-27T07:25:26.270Z,58.17
2018-09-27T07:27:58.403Z,39.00
2018-09-27T07:30:29.785Z,70.70
2018-09-27T07:33:03.727Z,50.70
2018-09-27T07:35:34.870Z,34.38
2018-09-27T07:38:07.216Z,47.53
2018-09-27T07:40:38.031Z,29.67
2018-09-27T07:43:09.599Z,39.57
2018-09-27T07:45:41.014Z,39.42
2018-09-27T07:48:12.391Z,33.50
2018-09-27T07:50:43.697Z,34.38
2018-09-27T07:53:15.156Z,33.38
2018-09-27T07:55:46.514Z,42.78
2018-09-27T07:58:17.813Z,34.27
2018-09-27T08:00:49.193Z,39.05
2018-09-27T08:03:20.847Z,40.30
2018-09-27T08:05:52.094Z,30.32
2018-09-27T08:08:24.008Z,31.05
2018-09-27T08:10:55.635Z,39.50
2018-09-27T08:13:26.978Z,30.40
2018-09-27T08:15:58.242Z,32.90
2018-09-27T08:18:30.899Z,33.00
2018-09-27T08:21:02.517Z,30.27
2018-09-27T08:23:34.154Z,26.17
2018-09-27T08:26:05.572Z,28.55
2018-09-27T08:28:37.294Z,28.87
2018-09-27T08:31:08.437Z,32.20
2018-09-27T08:33:40.790Z,27.53
2018-09-27T08:36:12.178Z,35.48
2018-09-27T08:38:43.872Z,37.05
2018-09-27T08:41:15.258Z,29.70
2018-09-27T08:43:47.083Z,36.30
2018-09-27T08:46:18.100Z,28.43
2018-09-27T08:48:49.650Z,20.03
2018-09-27T08:51:20.791Z,31.40
2018-09-27T08:53:52.543Z,25.72
2018-09-27T08:56:23.969Z,27.32
2018-09-27T08:58:55.306Z,32.90
2018-09-27T09:01:26.716Z,33.83
2018-09-27T09:03:58.631Z,33.98
2018-09-27T09:06:29.986Z,35.40
2018-09-27T09:09:02.610Z,44.77
2018-09-27T09:11:33.928Z,38.63
2018-09-27T09:14:06.216Z,42.83
2018-09-27T09:16:37.701Z,34.97
2018-09-27T09:19:09.362Z,31.70
2018-09-27T09:21:40.728Z,40.77
2018-09-27T09:24:12.049Z,38.60
2018-09-27T09:26:43.427Z,40.83
2018-09-27T09:29:14.866Z,29.97
2018-09-27T09:31:46.424Z,39.30
2018-09-27T09:34:19.681Z,35.83
2018-09-27T09:36:50.734Z,44.67
2018-09-27T09:39:22.334Z,40.30
2018-09-27T09:41:53.609Z,41.93
2018-09-27T09:44:25.122Z,38.23
2018-09-27T09:46:56.354Z,34.97
2018-09-27T09:49:27.855Z,38.13
2018-09-27T09:51:59.134Z,44.83
2018-09-27T09:54:30.522Z,33.00
2018-09-27T09:57:02.222Z,33.57
2018-09-27T09:59:33.961Z,30.77
2018-09-27T10:02:05.310Z,52.33
2018-09-27T10:04:36.938Z,41.27
2018-09-27T10:07:08.207Z,47.20
2018-09-27T10:09:40.026Z,36.90
2018-09-27T10:12:11.258Z,46.37
2018-09-27T10:14:42.761Z,55.83
2018-09-27T10:17:13.822Z,47.67
2018-09-27T10:19:45.372Z,43.57
2018-09-27T10:22:16.899Z,52.07
2018-09-27T10:24:48.316Z,45.77
2018-09-27T10:27:19.627Z,33.90
2018-09-27T10:29:51.237Z,47.50
2018-09-27T10:32:22.635Z,46.30
2018-09-27T10:34:55.438Z,44.53
2018-09-27T10:37:26.781Z,40.30
2018-09-27T10:39:58.242Z,46.00
2018-09-27T10:42:29.490Z,50.43
2018-09-27T10:45:00.974Z,54.37
2018-09-27T10:47:32.787Z,38.70
2018-09-27T10:50:05.534Z,39.17
2018-09-27T10:52:36.677Z,39.40
2018-09-27T10:55:09.239Z,40.30
2018-09-27T10:57:40.518Z,43.97
2018-09-27T11:00:16.595Z,50.17
2018-09-27T11:02:48.968Z,50.87
2018-09-27T11:05:20.932Z,43.77
2018-09-27T11:07:52.693Z,37.17
2018-09-27T11:10:24.319Z,44.27
2018-09-27T11:12:55.819Z,48.50
2018-09-27T11:15:27.604Z,41.73
2018-09-27T11:17:58.925Z,37.77
2018-09-27T11:20:30.414Z,41.43
2018-09-27T11:23:01.738Z,56.30
2018-09-27T11:25:33.166Z,40.30
2018-09-27T11:28:04.046Z,41.13
2018-09-27T11:30:36.201Z,50.20
2018-09-27T11:33:07.286Z,70.27
2018-09-27T11:35:41.852Z,54.57
2018-09-27T11:38:13.126Z,41.30
2018-09-27T11:40:44.621Z,45.93
2018-09-27T11:43:16.688Z,52.77
2018-09-27T11:45:47.959Z,47.30
2018-09-27T11:48:21.149Z,50.27
2018-09-27T11:50:52.740Z,46.90
2018-09-27T11:53:24.773Z,62.20
2018-09-27T11:55:56.568Z,60.87
2018-09-27T11:58:27.617Z,63.13
2018-09-27T12:00:59.041Z,64.97
2018-09-27T12:03:30.039Z,59.43
2018-09-27T12:06:02.294Z,69.60
2018-09-27T12:08:33.256Z,49.20
2018-09-27T12:11:04.865Z,44.60
2018-09-27T12:13:35.930Z,57.50
2018-09-27T12:16:07.837Z,58.17
2018-09-27T12:18:38.800Z,58.63
2018-09-27T12:21:09.927Z,47.03
2018-09-27T12:23:41.798Z,55.93
2018-09-27T12:26:13.031Z,51.47
2018-09-27T12:28:44.128Z,43.23
2018-09-27T12:31:15.918Z,37.00
2018-09-27T12:33:46.762Z,56.67
2018-09-27T12:36:20.562Z,40.17
2018-09-27T12:38:51.811Z,42.83
2018-09-27T12:41:23.130Z,37.97
2018-09-27T12:43:54.326Z,45.20
2018-09-27T12:46:26.497Z,43.40
2018-09-27T12:48:57.609Z,43.10
2018-09-27T12:51:29.248Z,47.83
2018-09-27T12:54:00.120Z,44.23
2018-09-27T12:56:31.185Z,47.47
2018-09-27T12:59:02.326Z,40.20
2018-09-27T13:01:33.418Z,45.30
2018-09-27T13:04:05.252Z,46.57
2018-09-27T13:06:36.817Z,52.33
2018-09-27T13:09:10.359Z,43.93
2018-09-27T13:11:41.686Z,48.70
2018-09-27T13:14:12.765Z,52.67
2018-09-27T13:16:44.161Z,43.17
2018-09-27T13:19:15.394Z,49.37
2018-09-27T13:21:46.801Z,41.57
2018-09-27T13:24:17.830Z,43.10
2018-09-27T13:26:48.992Z,35.10
2018-09-27T13:29:19.931Z,48.53
2018-09-27T13:31:51.152Z,35.73
2018-09-27T13:34:22.083Z,43.10
2018-09-27T13:36:54.458Z,47.23
2018-09-27T13:39:25.448Z,35.90
2018-09-27T13:41:56.494Z,39.10
2018-09-27T13:44:27.444Z,42.03
2018-09-27T13:46:58.626Z,36.77
2018-09-27T13:49:29.503Z,44.40
2018-09-27T13:52:00.617Z,47.67
2018-09-27T13:54:31.494Z,34.17
2018-09-27T13:57:03.439Z,50.17
2018-09-27T13:59:34.389Z,38.23
2018-09-27T14:02:05.555Z,36.83
2018-09-27T14:04:36.787Z,38.70
2018-09-27T14:07:08.622Z,36.17
2018-09-27T14:09:39.699Z,44.13
2018-09-27T14:12:10.890Z,45.37
2018-09-27T14:14:41.964Z,39.23
2018-09-27T14:17:13.289Z,29.43
2018-09-27T14:19:44.218Z,31.23
2018-09-27T14:22:15.491Z,48.73
2018-09-27T14:24:46.490Z,39.77
2018-09-27T14:27:17.798Z,30.43
2018-09-27T14:29:48.817Z,39.20
2018-09-27T14:32:20.079Z,36.27
2018-09-27T14:34:51.129Z,37.30
2018-09-27T14:37:23.258Z,36.97
2018-09-27T14:39:54.137Z,38.23
2018-09-27T14:42:25.500Z,45.73
2018-09-27T14:44:56.486Z,48.43
2018-09-27T14:47:27.785Z,37.33
2018-09-27T14:49:58.969Z,32.97
2018-09-27T14:52:30.142Z,38.77
2018-09-27T14:55:01.142Z,43.20
2018-09-27T14:57:32.526Z,43.83
2018-09-27T15:00:03.494Z,44.40
2018-09-27T15:02:35.137Z,39.03
2018-09-27T15:05:06.501Z,48.07
2018-09-27T15:07:37.836Z,41.83
2018-09-27T15:10:08.928Z,37.90
2018-09-27T15:12:40.656Z,50.97
2018-09-27T15:15:11.695Z,42.93
2018-09-27T15:17:42.977Z,49.63
2018-09-27T15:20:13.978Z,39.43
2018-09-27T15:22:45.369Z,47.33
2018-09-27T15:25:16.387Z,48.50
2018-09-27T15:27:47.451Z,50.63
2018-09-27T15:30:18.374Z,48.40
2018-09-27T15:32:49.912Z,55.30
2018-09-27T15:35:20.975Z,55.37
2018-09-27T15:37:54.207Z,43.30
2018-09-27T15:40:25.121Z,54.00
2018-09-27T15:42:56.387Z,48.80
2018-09-27T15:45:27.238Z,46.13
2018-09-27T15:47:58.767Z,48.77
2018-09-27T15:50:29.699Z,52.50
2018-09-27T15:53:00.787Z,46.00
2018-09-27T15:55:31.762Z,44.90
2018-09-27T15:58:04.019Z,59.40
2018-09-27T16:00:35.143Z,58.60
2018-09-27T16:03:07.310Z,54.60
2018-09-27T16:05:38.187Z,59.17
2018-09-27T16:08:09.471Z,43.23
2018-09-27T16:10:40.397Z,52.10
2018-09-27T16:13:11.628Z,51.13
2018-09-27T16:15:42.685Z,44.90
2018-09-27T16:18:13.862Z,55.30
2018-09-27T16:20:44.835Z,55.17
2018-09-27T16:23:15.995Z,54.07
2018-09-27T16:25:46.973Z,68.50
2018-09-27T16:28:18.413Z,55.93
2018-09-27T16:30:49.458Z,59.87
2018-09-27T16:33:21.100Z,60.73
2018-09-27T16:35:52.039Z,62.67
2018-09-27T16:38:24.358Z,63.70
2018-09-27T16:40:55.306Z,56.63
2018-09-27T16:43:26.406Z,59.43
2018-09-27T16:45:57.426Z,51.13
2018-09-27T16:48:28.799Z,53.33
2018-09-27T16:50:59.746Z,49.77
2018-09-27T16:53:30.851Z,51.33
2018-09-27T16:56:02.254Z,51.83
2018-09-27T16:58:33.542Z,54.87
2018-09-27T17:01:05.350Z,47.30
2018-09-27T17:03:36.483Z,58.57
2018-09-27T17:06:07.407Z,47.10
2018-09-27T17:08:38.910Z,52.70
2018-09-27T17:11:10.063Z,49.50
2018-09-27T17:13:41.310Z,47.67
2018-09-27T17:16:12.254Z,45.60
2018-09-27T17:18:43.535Z,40.43
2018-09-27T17:21:14.470Z,37.90
2018-09-27T17:23:45.615Z,42.80
2018-09-27T17:26:16.653Z,34.80
2018-09-27T17:28:47.743Z,38.97
2018-09-27T17:31:18.631Z,53.13
2018-09-27T17:33:49.902Z,44.00
2018-09-27T17:36:20.845Z,49.37
2018-09-27T17:38:53.886Z,34.90
2018-09-27T17:41:24.684Z,41.93
2018-09-27T17:43:56.066Z,38.30
2018-09-27T17:46:27.005Z,28.80
2018-09-27T17:48:58.083Z,32.10
2018-09-27T17:51:29.055Z,35.70
2018-09-27T17:54:00.326Z,37.97
2018-09-27T17:56:31.500Z,31.67
2018-09-27T17:59:02.742Z,40.87
2018-09-27T18:01:34.061Z,41.43
2018-09-27T18:04:05.291Z,39.63
2018-09-27T18:06:36.336Z,42.83
2018-09-27T18:09:11.313Z,44.70
2018-09-27T18:11:43.824Z,36.57
2018-09-27T18:14:14.914Z,37.83
2018-09-27T18:16:46.671Z,35.17
2018-09-27T18:19:18.494Z,39.27
2018-09-27T18:21:49.600Z,36.53
2018-09-27T18:24:20.826Z,36.13
2018-09-27T18:26:51.952Z,28.33
2018-09-27T18:29:23.491Z,33.10
2018-09-27T18:31:57.745Z,34.53
2018-09-27T18:34:29.151Z,37.47
2018-09-27T18:37:00.506Z,35.23
2018-09-27T18:39:33.019Z,27.00
2018-09-27T18:42:04.296Z,33.90
2018-09-27T18:44:35.561Z,34.20
2018-09-27T18:47:06.497Z,37.97
2018-09-27T18:49:38.731Z,36.83
2018-09-27T18:52:09.738Z,34.33
2018-09-27T18:54:41.034Z,30.67
2018-09-27T18:57:12.494Z,34.23
2018-09-27T18:59:43.702Z,32.60
2018-09-27T19:02:14.725Z,38.43
2018-09-27T19:04:46.285Z,35.73
2018-09-27T19:07:17.317Z,34.70
2018-09-27T19:09:49.435Z,32.50
2018-09-27T19:12:20.458Z,37.40
2018-09-27T19:14:52.063Z,39.47
2018-09-27T19:17:23.149Z,40.00
2018-09-27T19:19:54.385Z,35.07
2018-09-27T19:22:25.359Z,34.13
2018-09-27T19:24:56.699Z,37.77
2018-09-27T19:27:27.994Z,36.47
2018-09-27T19:29:59.589Z,41.57
2018-09-27T19:32:30.530Z,46.13
2018-09-27T19:35:02.546Z,39.63
2018-09-27T19:37:33.618Z,31.80
2018-09-27T19:40:05.869Z,38.27
2018-09-27T19:42:36.807Z,44.07
2018-09-27T19:45:08.242Z,43.23
2018-09-27T19:47:39.285Z,35.67
2018-09-27T19:50:11.034Z,37.37
2018-09-27T19:52:42.614Z,36.67
2018-09-27T19:55:14.313Z,32.43
2018-09-27T19:57:45.790Z,31.83
2018-09-27T20:00:17.167Z,34.93
2018-09-27T20:02:48.402Z,40.63
2018-09-27T20:05:19.958Z,37.00
2018-09-27T20:07:51.002Z,43.47
2018-09-27T20:10:22.620Z,35.23
2018-09-27T20:12:53.801Z,42.40
2018-09-27T20:15:25.191Z,45.33
2018-09-27T20:17:56.256Z,40.30
2018-09-27T20:20:27.852Z,46.17
2018-09-27T20:22:58.985Z,36.73
2018-09-27T20:25:30.521Z,39.23
2018-09-27T20:28:04.963Z,43.60
2018-09-27T20:30:36.829Z,41.93
2018-09-27T20:33:09.122Z,48.77
2018-09-27T20:35:40.757Z,41.40
2018-09-27T20:38:11.963Z,52.13
2018-09-27T20:40:44.871Z,37.13
2018-09-27T20:43:16.081Z,42.13
2018-09-27T20:45:47.810Z,35.43
2018-09-27T20:48:18.986Z,46.03
2018-09-27T20:50:50.622Z,39.23
2018-09-27T20:53:21.677Z,39.30
2018-09-27T20:55:53.778Z,41.53
2018-09-27T20:58:25.175Z,43.83
2018-09-27T21:00:56.618Z,37.03
2018-09-27T21:03:27.858Z,39.40
2018-09-27T21:05:59.609Z,38.93
2018-09-27T21:08:30.560Z,44.87
2018-09-27T21:11:02.034Z,45.87
2018-09-27T21:13:32.994Z,50.63
2018-09-27T21:16:05.046Z,40.03
2018-09-27T21:18:36.073Z,35.83
2018-09-27T21:21:07.178Z,42.83
2018-09-27T21:23:38.086Z,41.20
2018-09-27T21:26:09.335Z,46.03
2018-09-27T21:28:40.497Z,41.80
2018-09-27T21:31:11.753Z,50.70
2018-09-27T21:33:42.665Z,48.60
2018-09-27T21:36:14.393Z,45.50
2018-09-27T21:38:45.454Z,46.33
2018-09-27T21:41:17.811Z,45.03
2018-09-27T21:43:48.792Z,42.73
2018-09-27T21:46:20.487Z,47.33
2018-09-27T21:48:51.550Z,46.90
2018-09-27T21:51:22.765Z,56.20
2018-09-27T21:53:53.741Z,63.27
2018-09-27T21:56:24.886Z,46.93
2018-09-27T21:58:55.923Z,45.30
2018-09-27T22:01:27.026Z,48.13
2018-09-27T22:03:57.977Z,49.33
2018-09-27T22:06:29.346Z,46.43
2018-09-27T22:09:00.430Z,55.87
2018-09-27T22:11:31.619Z,42.13
2018-09-27T22:14:02.608Z,49.47
2018-09-27T22:16:34.154Z,47.33
2018-09-27T22:19:05.197Z,42.43
2018-09-27T22:21:36.461Z,44.10
2018-09-27T22:24:07.666Z,49.60
2018-09-27T22:26:39.566Z,49.37
2018-09-27T22:29:10.674Z,52.47
2018-09-27T22:31:42.563Z,45.13
2018-09-27T22:34:14.002Z,55.63
2018-09-27T22:36:45.181Z,50.53
2018-09-27T22:39:16.196Z,45.27
2018-09-27T22:41:49.033Z,45.37
2018-09-27T22:44:20.030Z,44.67
2018-09-27T22:46:51.278Z,49.80
2018-09-27T22:49:22.345Z,44.00
2018-09-27T22:51:53.603Z,44.57
2018-09-27T22:54:24.566Z,45.57
2018-09-27T22:56:55.710Z,44.37
2018-09-27T22:59:26.699Z,48.33
2018-09-27T23:01:58.745Z,49.70
2018-09-27T23:04:29.745Z,49.77
2018-09-27T23:07:01.441Z,42.73
2018-09-27T23:09:32.515Z,47.60
2018-09-27T23:12:06.258Z,42.40
2018-09-27T23:14:37.448Z,43.63
2018-09-27T23:17:09.245Z,46.50
2018-09-27T23:19:40.078Z,45.43
2018-09-27T23:22:11.366Z,42.90
2018-09-27T23:24:42.305Z,57.93
2018-09-27T23:27:13.401Z,47.67
2018-09-27T23:29:44.322Z,44.20
2018-09-27T23:32:15.756Z,44.40
2018-09-27T23:34:46.774Z,43.60
2018-09-27T23:37:18.214Z,50.67
2018-09-27T23:39:49.130Z,53.03
2018-09-27T23:42:21.733Z,49.70
2018-09-27T23:44:52.566Z,43.60
2018-09-27T23:47:23.899Z,53.13
2018-09-27T23:49:54.830Z,48.20
2018-09-27T23:52:25.830Z,47.83
2018-09-27T23:54:57.458Z,45.97
2018-09-27T23:57:29.338Z,57.27
